Time;durP1;ratioP1;P1;durP2;ratioP2;P2;SDS_P1;SDS_P2;PMS_P1;PMS_P2;Temp;Humidity;BMP_temperature;BMP_pressure;BME280_temperature;BME280_humidity;BME280_pressure;Samples;Min_cycle;Max_cycle;Signal;HPM_P1;HPM_P2
2023/02/25 00:01:43;;;;;;;13.93;5.63;;;;;;;3.80;100.00;98637.84;5020680;28;20071;-78
2023/02/25 00:04:08;;;;;;;13.60;5.85;;;;;;;3.81;100.00;98639.59;5004354;28;20042;-78
2023/02/25 00:06:33;;;;;;;15.90;5.90;;;;;;;3.81;100.00;98652.66;5024521;28;20041;-78
2023/02/25 00:08:59;;;;;;;14.43;6.10;;;;;;;3.86;100.00;98643.91;5021914;28;20125;-78
2023/02/25 00:11:26;;;;;;;13.32;5.35;;;;;;;3.86;100.00;98641.28;5005568;28;20080;-78
2023/02/25 00:13:52;;;;;;;18.92;6.40;;;;;;;3.94;100.00;98641.22;5026296;28;20034;-78
2023/02/25 00:16:18;;;;;;;10.90;5.00;;;;;;;3.93;100.00;98653.41;5021798;28;20038;-79
2023/02/25 00:18:45;;;;;;;10.30;5.80;;;;;;;3.88;100.00;98636.94;5024693;28;20040;-79
2023/02/25 00:21:14;;;;;;;15.93;5.00;;;;;;;3.91;100.00;98636.88;5013437;28;20037;-78
2023/02/25 00:23:41;;;;;;;13.75;5.45;;;;;;;3.98;100.00;98637.69;5004443;28;20039;-78
2023/02/25 00:26:07;;;;;;;13.32;4.82;;;;;;;4.01;100.00;98636.78;5005198;28;20037;-78
2023/02/25 00:28:34;;;;;;;9.75;5.25;;;;;;;4.04;100.00;98636.78;5024057;28;20172;-78
2023/02/25 00:31:04;;;;;;;13.10;5.05;;;;;;;4.09;100.00;98621.94;5005433;28;20029;-78
2023/02/25 00:33:29;;;;;;;15.90;5.65;;;;;;;4.01;100.00;98623.72;5002496;28;20037;-78
2023/02/25 00:35:54;;;;;;;15.02;5.35;;;;;;;4.00;100.00;98640.28;5003420;28;20469;-78
2023/02/25 00:38:21;;;;;;;13.63;4.88;;;;;;;4.06;100.00;98617.59;5003694;28;21542;-78
2023/02/25 00:40:46;;;;;;;12.07;5.82;;;;;;;4.09;100.00;98635.00;5025108;28;20030;-78
2023/02/25 00:43:12;;;;;;;11.27;4.53;;;;;;;4.14;100.00;98620.13;5022930;28;20087;-78
2023/02/25 00:45:39;;;;;;;10.32;5.22;;;;;;;4.11;100.00;98617.53;5024603;28;20048;-78
2023/02/25 00:48:05;;;;;;;14.52;4.57;;;;;;;4.16;100.00;98610.53;5000635;28;20103;-78
2023/02/25 00:50:30;;;;;;;14.60;4.65;;;;;;;4.14;100.00;98614.91;4991733;28;20037;-78
2023/02/25 00:52:55;;;;;;;12.85;4.18;;;;;;;4.10;100.00;98621.91;4992219;28;20041;-78
2023/02/25 00:55:21;;;;;;;12.68;4.18;;;;;;;4.11;100.00;98604.47;5022220;28;20048;-78
2023/02/25 00:57:46;;;;;;;10.68;4.05;;;;;;;4.09;100.00;98606.28;5007049;28;20056;-78
2023/02/25 01:00:15;;;;;;;10.82;3.03;;;;;;;4.05;100.00;98609.78;5001754;28;20037;-78
2023/02/25 01:02:44;;;;;;;11.13;3.83;;;;;;;4.04;100.00;98608.06;5004435;28;20064;-78
2023/02/25 01:05:11;;;;;;;7.57;2.80;;;;;;;3.94;100.00;98602.94;5005649;28;20447;-78
2023/02/25 01:07:37;;;;;;;15.40;4.15;;;;;;;4.00;100.00;98603.75;5005610;28;20037;-78
2023/02/25 01:10:05;;;;;;;14.68;3.65;;;;;;;4.01;100.00;98606.34;4989971;28;20030;-78
2023/02/25 01:12:30;;;;;;;12.98;4.28;;;;;;;4.07;100.00;98611.50;5007485;28;20044;-78
2023/02/25 01:14:56;;;;;;;12.25;4.10;;;;;;;4.11;100.00;98617.53;5022571;28;20037;-77
2023/02/25 01:17:22;;;;;;;11.07;4.15;;;;;;;4.05;100.00;98601.94;5008481;28;20533;-77
2023/02/25 01:19:47;;;;;;;11.07;4.00;;;;;;;4.05;100.00;98609.78;5027537;28;20040;-77
2023/02/25 01:22:13;;;;;;;17.90;4.93;;;;;;;4.06;100.00;98614.09;5010889;28;20406;-77
2023/02/25 01:24:38;;;;;;;11.02;5.05;;;;;;;4.05;100.00;98617.63;5028073;28;20068;-77
2023/02/25 01:27:06;;;;;;;13.63;4.35;;;;;;;4.05;100.00;98615.00;5020875;23;20415;-73
2023/02/25 01:29:35;;;;;;;10.48;4.22;;;;;;;4.06;100.00;98607.16;5026391;28;20132;-71
2023/02/25 01:32:02;;;;;;;11.27;3.85;;;;;;;4.11;100.00;98613.22;5019657;28;20055;-71
2023/02/25 01:34:28;;;;;;;9.77;3.88;;;;;;;4.11;100.00;98609.69;5023324;28;20535;-71
2023/02/25 01:36:54;;;;;;;10.93;4.00;;;;;;;4.10;100.00;98615.81;5025163;28;20049;-71
2023/02/25 01:39:21;;;;;;;12.20;3.75;;;;;;;4.14;100.00;98614.91;5023581;28;20084;-70
2023/02/25 01:41:52;;;;;;;7.18;2.78;;;;;;;4.13;100.00;98613.16;5023449;28;20108;-71
2023/02/25 01:44:30;;;;;;;13.00;3.05;;;;;;;4.07;100.00;98611.50;5022305;28;20531;-70
2023/02/25 01:46:55;;;;;;;12.20;4.20;;;;;;;4.01;100.00;98614.19;5021108;28;20519;-70
2023/02/25 01:49:28;;;;;;;10.65;3.55;;;;;;;4.04;100.00;98614.16;5026235;28;20124;-71
2023/02/25 01:52:15;;;;;;;12.10;3.53;;;;;;;4.07;100.00;98605.41;5023208;28;20491;-71
2023/02/25 01:54:44;;;;;;;9.25;4.03;;;;;;;4.05;100.00;98596.72;5026263;28;20029;-70
2023/02/25 01:57:11;;;;;;;10.23;3.53;;;;;;;4.09;100.00;98603.66;5011236;28;20040;-70
2023/02/25 01:59:39;;;;;;;9.93;3.80;;;;;;;4.03;100.00;98583.69;5023902;28;20036;-71
2023/02/25 02:02:07;;;;;;;11.40;3.50;;;;;;;3.91;100.00;98584.69;5007425;28;20032;-70
2023/02/25 02:04:35;;;;;;;11.00;3.90;;;;;;;3.79;100.00;98592.63;5008620;28;20037;-70
2023/02/25 02:07:02;;;;;;;11.23;4.35;;;;;;;3.74;100.00;98591.81;5023746;28;20507;-70
2023/02/25 02:09:28;;;;;;;10.88;3.92;;;;;;;3.68;100.00;98587.53;5023658;28;20045;-70
2023/02/25 02:12:00;;;;;;;11.45;4.35;;;;;;;3.61;100.00;98590.22;5006027;28;20030;-71
2023/02/25 02:14:33;;;;;;;13.38;4.75;;;;;;;3.53;100.00;98607.66;5022700;28;20033;-71
2023/02/25 02:17:25;;;;;;;13.35;4.75;;;;;;;3.46;100.00;98578.19;5018559;28;20044;-71
2023/02/25 02:20:11;;;;;;;10.50;3.80;;;;;;;3.41;100.00;98593.00;5010022;28;20029;-72
2023/02/25 02:22:53;;;;;;;13.82;3.80;;;;;;;3.39;100.00;98563.47;5008324;28;20049;-71
2023/02/25 02:25:51;;;;;;;7.93;3.78;;;;;;;3.36;100.00;98585.22;5003595;28;20045;-71
2023/02/25 02:28:48;;;;;;;11.52;3.13;;;;;;;3.26;100.00;98591.38;5021652;28;20030;-72
2023/02/25 02:31:53;;;;;;;7.00;2.72;;;;;;;3.12;100.00;98594.09;5022883;28;20052;-71
2023/02/25 02:34:46;;;;;;;9.10;2.60;;;;;;;3.07;100.00;98577.63;4993248;28;20611;-72
2023/02/25 02:37:24;;;;;;;10.43;2.65;;;;;;;3.01;100.00;98588.06;5021151;28;20044;-72
2023/02/25 02:40:23;;;;;;;8.35;2.60;;;;;;;3.05;100.00;98582.84;5022688;28;20377;-71
2023/02/25 02:43:20;;;;;;;11.13;2.67;;;;;;;3.03;100.00;98581.97;5023072;28;20045;-71
2023/02/25 02:46:08;;;;;;;12.57;2.72;;;;;;;3.01;100.00;98607.22;5014148;28;20033;-71
2023/02/25 02:49:01;;;;;;;9.65;2.25;;;;;;;2.95;100.00;98591.59;5012969;28;20034;-71
2023/02/25 02:51:31;;;;;;;;;;;;;;;2.94;100.00;98587.25;5021813;28;20648;-71
2023/02/25 02:53:59;;;;;;;7.78;2.00;;;;;;;2.93;100.00;98601.16;5024461;28;19917;-71
2023/02/25 02:56:27;;;;;;;10.98;2.45;;;;;;;2.95;100.00;98622.84;5019717;28;20084;-72
2023/02/25 02:59:13;;;;;;;14.18;2.25;;;;;;;2.85;100.00;98631.59;5025185;28;20029;-71
2023/02/25 03:01:50;;;;;;;8.52;2.30;;;;;;;2.87;100.00;98629.84;5011700;28;20044;-72
2023/02/25 03:04:26;;;;;;;7.90;1.80;;;;;;;2.69;100.00;98648.19;5017439;28;20029;-72
2023/02/25 03:06:58;;;;;;;9.93;2.58;;;;;;;2.58;100.00;98620.44;5021903;28;20036;-72
2023/02/25 03:09:32;;;;;;;5.50;1.90;;;;;;;2.51;100.00;98633.50;5000559;28;20037;-71
2023/02/25 03:11:57;;;;;;;7.10;2.25;;;;;;;2.35;100.00;98624.91;5008390;28;20045;-71
2023/02/25 03:14:23;;;;;;;9.38;2.55;;;;;;;2.33;100.00;98652.66;5023357;28;20033;-72
2023/02/25 03:17:08;;;;;;;7.75;1.65;;;;;;;2.30;100.00;98639.66;5020762;28;20041;-72
2023/02/25 03:19:39;;;;;;;10.02;2.10;;;;;;;2.28;100.00;98641.41;5024064;28;20047;-72
2023/02/25 03:22:09;;;;;;;8.52;2.17;;;;;;;2.25;100.00;98657.88;5024177;28;20083;-72
2023/02/25 03:24:44;;;;;;;9.10;2.63;;;;;;;2.25;100.00;98642.28;5018865;28;20034;-72
2023/02/25 03:27:33;;;;;;;6.63;1.63;;;;;;;2.26;100.00;98662.25;5019150;28;20085;-72
2023/02/25 03:30:26;;;;;;;5.85;1.30;;;;;;;2.22;100.00;98641.41;5014956;28;20120;-71
2023/02/25 03:32:58;;;;;;;5.13;1.52;;;;;;;2.18;100.00;98644.03;5019331;28;20028;-72
2023/02/25 03:35:26;;;;;;;7.60;1.35;;;;;;;2.18;100.00;98644.03;5022486;28;20065;-72
2023/02/25 03:37:59;;;;;;;9.35;1.52;;;;;;;2.14;100.00;98649.25;5019838;28;20033;-73
2023/02/25 03:40:26;;;;;;;5.20;1.25;;;;;;;2.16;100.00;98650.97;5016174;28;20018;-71
2023/02/25 03:42:57;;;;;;;10.43;1.70;;;;;;;2.17;100.00;98665.75;5017378;28;20037;-71
2023/02/25 03:45:24;;;;;;;5.43;1.15;;;;;;;2.13;100.00;98650.13;5019784;28;20034;-71
2023/02/25 03:47:50;;;;;;;6.85;1.65;;;;;;;2.19;100.00;98657.91;5018890;28;20045;-71
2023/02/25 03:50:29;;;;;;;7.60;1.42;;;;;;;2.23;100.00;98650.94;5019633;28;20034;-71
2023/02/25 03:52:58;;;;;;;5.03;1.45;;;;;;;2.21;100.00;98661.38;5019173;28;20457;-70
2023/02/25 03:55:45;;;;;;;4.90;1.60;;;;;;;2.29;100.00;98650.97;5012714;28;20041;-71
2023/02/25 03:58:10;;;;;;;10.50;1.95;;;;;;;2.37;100.00;98660.47;5020923;28;20489;-71
2023/02/25 04:00:37;;;;;;;6.88;2.10;;;;;;;2.48;100.00;98654.34;5008658;28;20036;-71
2023/02/25 04:03:04;;;;;;;10.27;2.30;;;;;;;2.50;100.00;98661.28;5020134;28;20041;-71
2023/02/25 04:05:29;;;;;;;8.15;2.13;;;;;;;2.54;100.00;98670.84;5004516;28;20034;-71
2023/02/25 04:07:55;;;;;;;9.15;2.30;;;;;;;2.62;100.00;98671.66;5018148;28;20049;-71
2023/02/25 04:10:21;;;;;;;9.65;2.20;;;;;;;2.62;100.00;98689.91;5023784;28;20125;-71
2023/02/25 04:12:48;;;;;;;6.07;1.98;;;;;;;2.64;100.00;98675.09;5015892;28;20069;-70
2023/02/25 04:15:13;;;;;;;8.45;2.17;;;;;;;2.66;100.00;98674.25;5023648;28;20087;-71
2023/02/25 04:17:40;;;;;;;6.15;1.90;;;;;;;2.69;100.00;98669.88;5002158;28;20026;-71
2023/02/25 04:20:05;;;;;;;9.20;2.58;;;;;;;2.73;100.00;98670.75;5020803;28;20034;-70
2023/02/25 04:22:32;;;;;;;10.18;1.83;;;;;;;2.75;100.00;98679.41;5021820;28;20033;-71
2023/02/25 04:24:57;;;;;;;10.15;2.50;;;;;;;2.72;100.00;98680.28;5019112;28;20550;-71
2023/02/25 04:27:23;;;;;;;5.03;1.80;;;;;;;2.73;100.00;98671.63;5021606;28;20044;-71
2023/02/25 04:29:48;;;;;;;11.95;2.60;;;;;;;2.76;100.00;98683.78;5019984;28;20054;-71
2023/02/25 04:32:13;;;;;;;7.78;2.03;;;;;;;2.79;100.00;98691.56;5020775;28;20037;-71
2023/02/25 04:34:39;;;;;;;5.18;1.83;;;;;;;2.77;100.00;98688.94;5022073;28;20037;-71
2023/02/25 04:37:04;;;;;;;7.32;2.28;;;;;;;2.77;100.00;98677.66;5020384;28;20042;-71
2023/02/25 04:39:31;;;;;;;8.50;2.40;;;;;;;2.81;100.00;98682.88;5019710;28;20037;-71
2023/02/25 04:41:57;;;;;;;5.80;1.90;;;;;;;2.75;100.00;98690.72;5021572;28;20033;-71
2023/02/25 04:44:22;;;;;;;7.38;2.22;;;;;;;2.75;100.00;98679.41;5021292;28;20088;-71
2023/02/25 04:46:50;;;;;;;3.95;1.70;;;;;;;2.73;100.00;98689.00;5013207;28;20501;-71
2023/02/25 04:49:18;;;;;;;8.85;2.33;;;;;;;2.76;100.00;98702.00;5018843;28;20038;-71
2023/02/25 04:51:43;;;;;;;12.82;2.00;;;;;;;2.77;100.00;98688.94;5021984;28;20592;-71
2023/02/25 04:54:09;;;;;;;6.32;2.08;;;;;;;2.80;100.00;98688.06;5020639;28;20038;-71
2023/02/25 04:56:35;;;;;;;4.07;1.23;;;;;;;2.82;100.00;98688.94;5021621;28;20095;-71
2023/02/25 04:59:00;;;;;;;10.63;2.50;;;;;;;2.77;100.00;98694.16;5020162;28;20076;-71
2023/02/25 05:01:26;;;;;;;7.18;2.10;;;;;;;2.74;100.00;98699.41;5022007;28;20073;-70
2023/02/25 05:03:55;;;;;;;5.90;2.13;;;;;;;2.73;100.00;98699.41;5020083;28;20038;-71
2023/02/25 05:06:23;;;;;;;5.68;1.70;;;;;;;2.69;100.00;98713.31;5022256;28;20029;-71
2023/02/25 05:08:49;;;;;;;7.75;2.40;;;;;;;2.58;100.00;98714.22;5015730;28;20030;-71
2023/02/25 05:11:15;;;;;;;6.25;2.22;;;;;;;2.42;100.00;98710.78;5019823;28;20037;-71
2023/02/25 05:13:40;;;;;;;9.40;2.10;;;;;;;2.40;100.00;98712.53;5020112;28;20049;-71
2023/02/25 05:16:09;;;;;;;6.85;2.65;;;;;;;2.40;100.00;98741.16;5021945;28;20029;-70
2023/02/25 05:18:39;;;;;;;8.52;2.55;;;;;;;2.42;100.00;98730.75;5020374;28;20045;-70
2023/02/25 05:21:11;;;;;;;8.70;2.50;;;;;;;2.43;100.00;98716.84;5020804;28;20064;-71
2023/02/25 05:23:38;;;;;;;5.88;2.00;;;;;;;2.35;100.00;98723.81;5022095;28;20515;-71
2023/02/25 05:26:04;;;;;;;7.78;2.30;;;;;;;2.33;100.00;98730.75;5018960;28;20041;-71
2023/02/25 05:28:29;;;;;;;6.25;2.10;;;;;;;2.32;100.00;98723.84;5019995;28;20040;-71
2023/02/25 05:30:55;;;;;;;8.15;2.47;;;;;;;2.27;100.00;98722.97;5019453;28;20030;-71
2023/02/25 05:33:22;;;;;;;3.67;1.55;;;;;;;2.26;100.00;98734.25;5022624;28;20136;-71
2023/02/25 05:35:47;;;;;;;5.50;2.20;;;;;;;2.25;100.00;98738.56;5018838;28;20515;-71
2023/02/25 05:38:12;;;;;;;6.35;2.55;;;;;;;2.16;100.00;98773.31;5018750;28;20092;-71
2023/02/25 05:40:38;;;;;;;5.55;1.98;;;;;;;2.11;100.00;98745.56;5022720;28;20026;-71
2023/02/25 05:43:03;;;;;;;6.78;2.50;;;;;;;2.07;100.00;98742.09;5015167;28;20092;-71
2023/02/25 05:45:29;;;;;;;6.18;2.28;;;;;;;1.94;100.00;98750.78;5021896;28;20033;-71
2023/02/25 05:47:54;;;;;;;4.60;2.15;;;;;;;1.95;100.00;98758.56;5019208;28;20034;-71
2023/02/25 05:50:19;;;;;;;3.42;1.60;;;;;;;1.91;100.00;98751.66;5019958;28;20030;-71
2023/02/25 05:52:45;;;;;;;5.00;1.65;;;;;;;1.84;100.00;98762.91;5022576;28;20499;-71
2023/02/25 05:55:11;;;;;;;3.97;1.88;;;;;;;1.74;100.00;98756.81;5018897;28;20034;-71
2023/02/25 05:57:36;;;;;;;4.47;2.03;;;;;;;1.71;100.00;98767.22;5021635;28;20071;-71
2023/02/25 06:00:08;;;;;;;5.57;1.35;;;;;;;1.68;100.00;98766.38;5018994;28;20053;-71
2023/02/25 06:02:37;;;;;;;2.15;0.77;;;;;;;1.69;100.00;98775.88;4999012;28;20041;-72
2023/02/25 06:05:03;;;;;;;1.98;1.00;;;;;;;1.65;100.00;98780.22;5023412;28;20035;-71
2023/02/25 06:07:30;;;;;;;2.90;1.27;;;;;;;1.63;100.00;98781.09;5024175;28;20030;-71
2023/02/25 06:09:59;;;;;;;2.80;0.80;;;;;;;1.57;100.00;98807.94;5023358;28;20038;-71
2023/02/25 06:12:26;;;;;;;2.08;0.85;;;;;;;1.63;100.00;98792.34;5025228;28;20041;-71
2023/02/25 06:14:52;;;;;;;2.65;1.15;;;;;;;1.53;100.00;98785.41;5022777;28;20122;-71
2023/02/25 06:17:17;;;;;;;2.75;1.13;;;;;;;1.45;100.00;98821.78;5007457;28;20134;-71
2023/02/25 06:19:42;;;;;;;3.30;0.85;;;;;;;1.48;100.00;98815.72;5024076;28;20030;-71
2023/02/25 06:22:08;;;;;;;1.95;0.80;;;;;;;1.43;100.00;98810.50;5022224;28;20037;-71
2023/02/25 06:24:33;;;;;;;1.85;0.85;;;;;;;1.48;100.00;98823.50;5023491;28;20033;-71
2023/02/25 06:26:58;;;;;;;2.90;1.30;;;;;;;1.50;100.00;98824.41;5025174;28;20403;-71
2023/02/25 06:29:24;;;;;;;5.20;1.40;;;;;;;1.53;100.00;98827.00;5021704;28;20401;-71
2023/02/25 06:31:49;;;;;;;3.40;0.90;;;;;;;1.54;100.00;98823.53;5018200;28;20508;-71
2023/02/25 06:34:14;;;;;;;3.80;1.15;;;;;;;1.55;100.00;98822.69;5025888;28;20045;-71
2023/02/25 06:36:40;;;;;;;4.50;1.48;;;;;;;1.60;100.00;98820.97;5021432;28;20037;-71
2023/02/25 06:39:05;;;;;;;4.00;1.55;;;;;;;1.62;100.00;98832.22;5025377;28;20430;-71
2023/02/25 06:41:30;;;;;;;3.22;0.98;;;;;;;1.63;100.00;98840.91;5021071;28;20061;-71
2023/02/25 06:43:56;;;;;;;3.50;1.33;;;;;;;1.67;100.00;98845.22;5023960;28;20037;-71
2023/02/25 06:46:23;;;;;;;2.53;1.20;;;;;;;1.72;100.00;98852.19;5021460;28;20038;-71
2023/02/25 06:48:48;;;;;;;5.28;1.40;;;;;;;1.80;100.00;98851.34;5018759;28;20128;-71
2023/02/25 06:51:14;;;;;;;2.75;1.02;;;;;;;1.90;100.00;98847.88;5022338;28;20041;-71
2023/02/25 06:53:42;;;;;;;4.53;1.35;;;;;;;1.91;100.00;98860.00;5024462;28;20041;-73
2023/02/25 06:56:09;;;;;;;3.95;1.40;;;;;;;1.98;100.00;98856.56;5022320;28;20413;-71
2023/02/25 06:58:36;;;;;;;7.88;1.98;;;;;;;2.02;100.00;98860.91;5023255;28;20108;-71
2023/02/25 07:01:06;;;;;;;6.82;1.75;;;;;;;2.06;100.00;98860.03;5023475;28;20539;-71
2023/02/25 07:03:31;;;;;;;4.80;1.40;;;;;;;2.06;100.00;98875.66;5024052;28;20048;-71
2023/02/25 07:05:58;;;;;;;3.88;1.52;;;;;;;2.06;100.00;98880.00;5021576;28;20064;-71
2023/02/25 07:08:23;;;;;;;5.15;1.50;;;;;;;2.08;100.00;98881.75;5021483;28;20041;-71
2023/02/25 07:10:48;;;;;;;3.33;1.67;;;;;;;2.08;100.00;98884.34;5024110;28;20037;-71
2023/02/25 07:13:13;;;;;;;3.70;1.48;;;;;;;2.09;100.00;98906.88;5021753;28;20040;-71
2023/02/25 07:15:39;;;;;;;3.13;1.02;;;;;;;2.11;100.00;98889.53;5023108;28;20041;-70
2023/02/25 07:18:04;;;;;;;4.35;1.50;;;;;;;2.16;100.00;98893.03;5021402;28;20045;-71
2023/02/25 07:20:30;;;;;;;2.22;1.20;;;;;;;2.12;100.00;98895.63;5021192;28;20036;-71
2023/02/25 07:22:55;;;;;;;5.18;1.63;;;;;;;2.16;100.00;98907.78;5023872;28;20037;-71
2023/02/25 07:25:21;;;;;;;3.22;1.42;;;;;;;2.20;100.00;98912.09;5021038;28;20038;-71
2023/02/25 07:27:46;;;;;;;4.45;1.30;;;;;;;2.29;100.00;98903.47;5037799;22;20521;-75
2023/02/25 07:30:12;;;;;;;4.93;1.55;;;;;;;2.34;100.00;98930.38;5043828;28;20037;-75
2023/02/25 07:32:39;;;;;;;3.38;1.15;;;;;;;2.34;100.00;98907.81;5044502;28;20037;-75
2023/02/25 07:35:04;;;;;;;3.55;1.40;;;;;;;2.36;100.00;98913.88;5036362;28;20033;-75
2023/02/25 07:37:30;;;;;;;5.47;1.20;;;;;;;2.34;100.00;98925.16;5027783;28;20029;-75
2023/02/25 07:39:58;;;;;;;5.78;1.80;;;;;;;2.36;100.00;98926.03;5062574;28;20544;-76
2023/02/25 07:42:25;;;;;;;7.00;1.58;;;;;;;2.27;100.00;98924.28;5034851;28;20067;-75
2023/02/25 07:44:52;;;;;;;5.75;1.55;;;;;;;2.27;100.00;98920.81;5044932;28;20059;-75
2023/02/25 07:47:18;;;;;;;7.35;2.42;;;;;;;2.21;100.00;98926.00;5060857;28;20499;-75
2023/02/25 07:49:44;;;;;;;7.60;2.33;;;;;;;2.19;100.00;98920.78;5061371;28;20052;-75
2023/02/25 07:52:09;;;;;;;3.90;1.50;;;;;;;2.25;100.00;98938.16;5062537;28;20448;-75
2023/02/25 07:54:35;;;;;;;4.82;1.55;;;;;;;2.14;100.00;98946.81;5035522;28;20558;-75
2023/02/25 07:57:00;;;;;;;4.82;1.52;;;;;;;2.19;100.00;98936.41;5060201;28;20459;-76
2023/02/25 07:59:25;;;;;;;6.05;1.70;;;;;;;2.22;100.00;98939.00;5053195;28;20583;-75
2023/02/25 08:01:51;;;;;;;4.38;1.85;;;;;;;2.27;100.00;98934.69;5061965;28;20044;-76
2023/02/25 08:04:16;;;;;;;6.38;1.70;;;;;;;2.27;100.00;98947.69;5043998;28;20055;-76
2023/02/25 08:06:41;;;;;;;9.18;2.83;;;;;;;2.32;100.00;98939.91;5061308;28;20121;-75
2023/02/25 08:09:11;;;;;;;5.57;2.13;;;;;;;2.30;100.00;98941.63;5061423;28;20045;-76
2023/02/25 08:11:37;;;;;;;7.22;2.90;;;;;;;2.27;100.00;98939.03;5044439;28;20681;-75
2023/02/25 08:14:02;;;;;;;8.20;3.72;;;;;;;2.31;100.00;98938.19;5060502;28;20121;-75
2023/02/25 08:16:27;;;;;;;7.95;2.67;;;;;;;2.33;100.00;98965.06;5062054;28;20540;-75
2023/02/25 08:18:53;;;;;;;5.00;2.00;;;;;;;2.28;100.00;98946.84;5060177;28;20491;-75
2023/02/25 08:21:21;;;;;;;7.63;2.65;;;;;;;2.30;100.00;98946.84;5061866;28;20115;-75
2023/02/25 08:23:50;;;;;;;6.13;2.00;;;;;;;2.26;100.00;98959.00;5063134;28;20043;-75
2023/02/25 08:26:21;;;;;;;6.53;1.80;;;;;;;2.26;100.00;98960.72;5054824;28;20041;-74
2023/02/25 08:28:47;;;;;;;6.28;1.50;;;;;;;2.33;100.00;98981.56;5062329;28;20044;-75
2023/02/25 08:31:13;;;;;;;4.20;1.70;;;;;;;2.26;100.00;98959.00;5060214;28;20082;-75
2023/02/25 08:33:40;;;;;;;5.13;1.60;;;;;;;2.27;100.00;98972.88;5061988;28;20040;-75
2023/02/25 08:36:11;;;;;;;7.78;2.08;;;;;;;2.27;100.00;98975.47;5059954;28;20040;-75
2023/02/25 08:38:37;;;;;;;4.28;1.40;;;;;;;2.12;100.00;98979.78;5042982;28;20399;-75
2023/02/25 08:41:04;;;;;;;4.07;1.70;;;;;;;2.19;100.00;98978.91;5061377;28;20111;-75
2023/02/25 08:43:31;;;;;;;4.38;1.50;;;;;;;2.19;100.00;98978.91;5062335;28;20036;-75
2023/02/25 08:45:56;;;;;;;4.88;1.90;;;;;;;2.17;100.00;98987.59;5041570;28;20025;-75
2023/02/25 08:48:22;;;;;;;5.93;1.67;;;;;;;2.10;100.00;98994.53;5044519;28;20452;-75
2023/02/25 08:50:47;;;;;;;3.85;1.50;;;;;;;2.12;100.00;99002.31;5055587;28;20051;-75
2023/02/25 08:53:12;;;;;;;10.95;2.22;;;;;;;2.10;100.00;98988.47;5061282;28;20151;-75
2023/02/25 08:55:38;;;;;;;5.55;1.40;;;;;;;2.11;100.00;98991.03;5043821;28;20518;-75
2023/02/25 08:58:04;;;;;;;8.85;1.83;;;;;;;2.26;100.00;98989.38;5059488;28;20032;-75
2023/02/25 09:00:30;;;;;;;5.75;2.63;;;;;;;2.27;100.00;98993.69;5061385;28;20399;-75
2023/02/25 09:02:55;;;;;;;5.10;2.00;;;;;;;2.30;100.00;98998.91;5063023;28;20032;-75
2023/02/25 09:05:21;;;;;;;4.80;2.05;;;;;;;2.29;100.00;98995.44;5058544;28;20041;-75
2023/02/25 09:07:47;;;;;;;5.10;1.27;;;;;;;2.29;100.00;99010.19;5055213;28;20040;-75
2023/02/25 09:10:12;;;;;;;4.18;1.63;;;;;;;2.33;100.00;99004.13;5059005;28;20029;-75
2023/02/25 09:12:39;;;;;;;4.47;1.45;;;;;;;2.30;100.00;99019.72;5059907;28;20037;-75
2023/02/25 09:15:06;;;;;;;3.53;1.63;;;;;;;2.45;100.00;99006.75;5061969;28;20060;-75
2023/02/25 09:17:31;;;;;;;2.45;0.93;;;;;;;2.40;100.00;99040.59;5058027;28;20044;-75
2023/02/25 09:20:00;;;;;;;5.22;1.45;;;;;;;2.34;100.00;99016.28;5053496;28;20021;-75
2023/02/25 09:22:25;;;;;;;2.85;0.90;;;;;;;2.40;100.00;99027.56;5061502;28;20041;-75
2023/02/25 09:24:50;;;;;;;3.15;1.23;;;;;;;2.28;100.00;99047.47;5060505;28;20040;-74
2023/02/25 09:27:15;;;;;;;3.13;1.17;;;;;;;2.33;100.00;99032.75;5042693;28;20605;-75
2023/02/25 09:29:41;;;;;;;7.45;2.22;;;;;;;2.38;100.00;99038.84;5061060;28;20068;-75
2023/02/25 09:32:14;;;;;;;2.13;0.85;;;;;;;2.37;100.00;99048.41;5061075;28;20068;-75
2023/02/25 09:34:40;;;;;;;5.68;1.20;;;;;;;2.35;100.00;99041.44;5061494;28;20093;-75
2023/02/25 09:37:05;;;;;;;4.05;1.30;;;;;;;2.47;100.00;99054.50;5050332;28;20033;-75
2023/02/25 09:39:30;;;;;;;4.68;1.67;;;;;;;2.52;100.00;99044.97;5061961;28;20112;-75
2023/02/25 09:42:08;;;;;;;2.55;0.98;;;;;;;2.54;100.00;99048.47;5065601;28;20509;-75
2023/02/25 09:44:53;;;;;;;3.58;1.33;;;;;;;2.56;100.00;99070.13;5060383;28;20043;-75
2023/02/25 09:47:30;;;;;;;3.72;1.08;;;;;;;2.50;100.00;99054.50;5065186;28;20036;-75
2023/02/25 09:50:13;;;;;;;5.25;2.03;;;;;;;2.52;100.00;99046.72;5060873;28;20556;-75
2023/02/25 09:52:41;;;;;;;2.83;1.17;;;;;;;2.50;100.00;99054.50;5056813;28;20048;-75
2023/02/25 09:55:14;;;;;;;1.85;0.75;;;;;;;2.47;100.00;99072.75;5059006;28;20032;-75
2023/02/25 09:57:40;;;;;;;2.08;0.88;;;;;;;2.40;100.00;99065.75;5046954;28;20040;-75
2023/02/25 10:00:17;;;;;;;3.95;1.55;;;;;;;2.43;100.00;99063.16;5064416;28;20101;-76
2023/02/25 10:02:49;;;;;;;3.97;1.20;;;;;;;2.51;100.00;99082.28;5065568;28;20045;-75
2023/02/25 10:05:24;;;;;;;6.60;1.55;;;;;;;2.37;100.00;99078.78;5058842;28;20033;-75
2023/02/25 10:08:06;;;;;;;4.63;1.45;;;;;;;2.42;100.00;99087.47;5064611;28;20025;-75
2023/02/25 10:11:02;;;;;;;3.03;1.33;;;;;;;2.42;100.00;99095.28;5061989;28;20041;-75
2023/02/25 10:13:36;;;;;;;3.17;1.45;;;;;;;2.38;100.00;99093.53;5058444;28;20086;-75
2023/02/25 10:16:28;;;;;;;5.03;0.95;;;;;;;2.23;100.00;99103.88;5046503;28;20037;-75
2023/02/25 10:19:00;;;;;;;6.60;2.15;;;;;;;2.09;100.00;99101.22;5060695;28;20021;-75
2023/02/25 10:22:01;;;;;;;3.40;0.95;;;;;;;2.03;100.00;99102.06;5064377;28;20411;-75
2023/02/25 10:24:35;;;;;;;4.13;1.50;;;;;;;2.09;100.00;99124.63;5027474;28;20476;-75
2023/02/25 10:27:18;;;;;;;6.78;1.42;;;;;;;2.07;100.00;99111.63;5059882;28;20057;-75
2023/02/25 10:29:48;;;;;;;1.98;0.70;;;;;;;2.04;100.00;99103.78;5063888;28;20040;-75
2023/02/25 10:32:19;;;;;;;4.13;1.55;;;;;;;2.10;100.00;99110.78;5061606;28;20488;-75
2023/02/25 10:34:45;;;;;;;3.17;0.85;;;;;;;2.06;100.00;99112.47;5058616;28;20111;-75
2023/02/25 10:37:18;;;;;;;5.07;1.10;;;;;;;2.00;100.00;99130.66;5062229;28;20044;-75
2023/02/25 10:39:47;;;;;;;3.08;0.68;;;;;;;2.00;100.00;99120.25;5063689;28;20028;-75
2023/02/25 10:42:14;;;;;;;4.57;1.30;;;;;;;1.97;100.00;99141.06;5063646;28;20040;-75
2023/02/25 10:44:40;;;;;;;7.10;0.98;;;;;;;1.84;100.00;99134.91;5064284;28;20094;-75
2023/02/25 10:47:11;;;;;;;3.80;1.15;;;;;;;1.92;100.00;99127.16;5061799;28;20033;-75
2023/02/25 10:49:37;;;;;;;2.28;0.70;;;;;;;1.83;100.00;99150.50;5064258;28;20388;-75
2023/02/25 10:52:14;;;;;;;2.88;0.70;;;;;;;1.94;100.00;99122.84;5062573;28;20082;-75
2023/02/25 10:54:51;;;;;;;2.90;0.63;;;;;;;2.04;100.00;99135.00;5031874;28;20079;-75
2023/02/25 10:57:24;;;;;;;2.40;1.02;;;;;;;1.93;100.00;99140.16;5063966;28;20044;-75
2023/02/25 11:00:03;;;;;;;2.72;0.80;;;;;;;1.98;100.00;99146.25;5058160;28;20098;-75
2023/02/25 11:02:39;;;;;;;1.40;0.90;;;;;;;2.01;100.00;99141.94;5044803;28;20043;-75
2023/02/25 11:05:05;;;;;;;1.92;0.70;;;;;;;1.96;100.00;99160.13;5063478;28;20032;-75
2023/02/25 11:07:36;;;;;;;1.33;0.60;;;;;;;1.96;100.00;99175.72;5063901;28;20131;-75
2023/02/25 11:10:18;;;;;;;1.25;0.55;;;;;;;1.73;100.00;99166.06;5061553;28;20045;-75
2023/02/25 11:12:55;;;;;;;1.45;0.45;;;;;;;1.73;100.00;99173.00;5061597;28;20043;-75
2023/02/25 11:15:23;;;;;;;3.05;0.70;;;;;;;1.77;100.00;99166.06;5059087;28;20449;-75
2023/02/25 11:17:49;;;;;;;1.45;0.55;;;;;;;1.71;100.00;99164.28;5063069;28;20044;-75
2023/02/25 11:20:24;;;;;;;2.08;0.40;;;;;;;1.70;100.00;99171.22;5041306;28;20120;-75
2023/02/25 11:22:52;;;;;;;1.80;0.60;;;;;;;1.77;100.00;99177.34;5063747;28;20034;-75
2023/02/25 11:25:42;;;;;;;1.42;0.50;;;;;;;1.70;100.00;99184.25;5052378;28;20071;-75
2023/02/25 11:28:19;;;;;;;0.60;0.40;;;;;;;1.53;100.00;99185.81;5050456;28;20045;-77
2023/02/25 11:30:44;;;;;;;1.60;0.57;;;;;;;1.52;100.00;99204.88;5057596;28;20052;-75
2023/02/25 11:33:47;;;;;;;1.30;0.57;;;;;;;1.77;100.00;99197.28;5063921;28;20044;-75
2023/02/25 11:36:20;;;;;;;1.90;0.57;;;;;;;1.83;100.00;99194.72;5030997;28;20041;-75
2023/02/25 11:38:45;;;;;;;0.90;0.40;;;;;;;1.87;100.00;99201.69;5061531;28;20040;-75
2023/02/25 11:41:21;;;;;;;0.80;0.32;;;;;;;1.97;100.00;99183.56;5063017;28;20036;-75
2023/02/25 11:43:48;;;;;;;0.50;0.25;;;;;;;2.03;100.00;99187.06;5057437;28;20039;-75